Airfield :
LOGIN :

Register | Disclaimer

   EN    FR    IT 

 










Legend :    VFR   Marginal VFR   IFR   Intensive IFR   Very Intensive IFR
Visi :
Ceiling :
>= 8 km
>= 3000ft
5 to 8 km
1000 to 3000 ft
1500m to 5 km
500 to 1000 ft
800 to 1500m
200 to 500 ft
< 800m
< 200 ft
Symbols :   Thunderstorms  Fog  Heavy snow  Heavy precipitations  Wind > 20 kt
SIGMETs :     Misc.  Thunderstorms  Icing  Turbulence  Mountain Waves  Volcanic Ashes







- Airport Elevation : 510 ft


LJCE - Cerklje

CURRENT METAR :
  • 181800Z 06003KT CAVOK 03/M01 Q1019 RMK BLU

EXPIRED METARs :
  • 181730Z AUTO 06002KT 9999 NSC 03/M01 Q1019
  • 181700Z AUTO 08004KT 9999 FEW045/// SCT060/// OVC073/// 03/M01 Q1019
  • 181630Z AUTO 08006KT 9999 BKN046/// OVC074/// 03/M01 Q1020
  • 181600Z AUTO 06003KT 9999 OVC045/// 04/M01 Q1020
  • 181530Z AUTO 05004KT 020V080 9999 OVC045/// 04/M02 Q1021
  • 181500Z AUTO 04004KT 010V080 9999 OVC045/// 04/M02 Q1021

TAF TAF LJCE
Valid from the 18 at 18:00 until the 19 at 03:00 UTC


181700Z 1818/1903 07005KT 9999 FEW040 OVC055
TEMPO 1818/1821 -RASN
BECMG 1818/1821 7000 SCT010 OVC035
TEMPO 1821/1903 3500 -SN BR BKN015 OVC030
No reported NOTAMs for that airfield.



MET'MAP, your aeronautical weather chart ! - Copyright ORBIFLY December 2007 - Disclaimer

ORBIFLY MET'MAP TEAM :

Programming & Development : Alexandra Zaïnal
Concept & Development : Baudouin d'Aumeries
Co-Development & Prog : Marc-Olivier Méhu
Technical & hardware support : Manuel Goepfert

Contact : metmap@orbifly.com




SOURCES & CREDITS :

   NOAA